Sea Drift — WDC2818 — position and weather

sailwx.info

Track history (hours):
 
Tides and Currents Weather Stations Pressure Air Temp Water Temp Dewpoint Dewpoint Depression Visibility Wind Speed Wind Dir Waves Ship Positions

Sea Drift

Owner: Marquette Transportation Company Gulf-Inland, LLC, Jefferson, LA. More information available from US FCC via Universal Licensing System and Coast Guard Vessel Documentation Center.

Last reported at 2017-Jan-12 19:33 UTC. Time now 2017-Jan-24 11:17 UTC.
Position N 29°50' W 091°58'.
Warning: this ship's position is 11 days out of date.

Length 23 m; draft 3 m.

Type: Towing. MMSI: 366998080.

Date/timePositionNaut miles runAvg speedWind from/ knotsBaromVisibWave heightAir tempDewpointWater temp
2017-Jan-12 19:33N 29°50' W 091°58'7 7.1
2017-Jan-12 18:33N 29°48' W 092°06'6 6.5
2017-Jan-12 17:33N 29°47' W 092°13'5 4.8
2017-Jan-12 16:33N 29°50' W 092°18'7 6.6
2017-Jan-12 15:33N 29°53' W 092°24'44 6.2
2017-Jan-12 08:33N 30°01' W 093°14'4 3.8
2017-Jan-12 07:33N 30°04' W 093°16'3 2.8
2017-Jan-12 06:33N 30°06' W 093°18'2 2.2
2017-Jan-12 05:33N 30°05' W 093°20'2 1.8
2017-Jan-12 04:33N 30°04' W 093°22'0 0.2
2017-Jan-12 03:33N 30°04' W 093°22'0 0.2
2017-Jan-12 02:33N 30°04' W 093°22'1 0.5
2017-Jan-12 01:33N 30°04' W 093°21'4 3.5
2017-Jan-12 00:33N 30°05' W 093°18'1 1.5
2017-Jan-11 23:33N 30°04' W 093°16'0 0.3
2017-Jan-11 22:33N 30°04' W 093°16'0 0.1
2017-Jan-11 21:33N 30°04' W 093°16'2 2.4
2017-Jan-11 20:33N 30°02' W 093°15'5 4.8
2017-Jan-11 19:33N 29°58' W 093°12'5 4.5
2017-Jan-11 18:33N 29°56' W 093°07'33 3.2
2017-Jan-11 08:27N 29°54' W 092°29'4 4.2
2017-Jan-11 07:33N 29°53' W 092°25'4 3.7
2017-Jan-11 06:33N 29°51' W 092°22'3 2.9
2017-Jan-11 05:33N 29°50' W 092°18'4 4.2
2017-Jan-11 04:33N 29°48' W 092°14'5 4.7
2017-Jan-11 03:33N 29°47' W 092°09'5 5.4
2017-Jan-11 02:33N 29°49' W 092°03'5 5.4
2017-Jan-11 01:33N 29°50' W 091°57'7 4.7
2017-Jan-11 00:03N 29°49' W 091°49'3 3.8
2017-Jan-10 23:14N 29°46' W 091°47'46 3.9
2017-Jan-10 11:29N 29°34' W 090°56'4 4.2
2017-Jan-10 10:28N 29°32' W 090°52'4 4.4
2017-Jan-10 09:33N 29°32' W 090°47'4 3.8
2017-Jan-10 08:33N 29°34' W 090°44'3 3.2
2017-Jan-10 07:33N 29°37' W 090°42'1 0.7
2017-Jan-10 06:33N 29°36' W 090°41'2 2.5
2017-Jan-10 05:33N 29°35' W 090°39'4 3.9
2017-Jan-10 04:33N 29°34' W 090°34'4 4.3
2017-Jan-10 03:33N 29°34' W 090°30'  
2017-Jan-06 04:16N 29°51' W 091°52'3 4.6
2017-Jan-06 03:34N 29°51' W 091°55'4 4.4
2017-Jan-06 02:33N 29°50' W 092°00'4 4.5
2017-Jan-06 01:34N 29°48' W 092°05'4 4.1
2017-Jan-06 00:33N 29°47' W 092°10'3 3.5
2017-Jan-05 23:34N 29°48' W 092°13'4 3.8
2017-Jan-05 22:34N 29°49' W 092°17'4 4.1
2017-Jan-05 21:34N 29°51' W 092°22'3 2.7
2017-Jan-05 20:34N 29°53' W 092°24'4 4.2
2017-Jan-05 19:32N 29°54' W 092°29'25 3.5
2017-Jan-05 12:31N 29°56' W 092°57'3 3.4
2017-Jan-05 11:33N 29°56' W 093°01'3 3.4
2017-Jan-05 10:32N 29°56' W 093°05'3 3.6
2017-Jan-05 09:34N 29°56' W 093°09'3 2.8
2017-Jan-05 08:34N 29°58' W 093°11'3 3.4
2017-Jan-05 07:34N 30°00' W 093°14'3 3.2
2017-Jan-05 06:34N 30°03' W 093°16'3 3.3
2017-Jan-05 05:34N 30°06' W 093°18'2 2.4
2017-Jan-05 04:34N 30°04' W 093°20'2 1.6
2017-Jan-05 03:33N 30°04' W 093°22'0 0.2
2017-Jan-05 02:34N 30°04' W 093°22'1 0.5
2017-Jan-05 01:34N 30°04' W 093°21'1 0.5
2017-Jan-05 00:34N 30°04' W 093°22'0 0.2
2017-Jan-04 23:34N 30°04' W 093°22'2 2.3
2017-Jan-04 22:34N 30°04' W 093°25'4 4.2
2017-Jan-04 21:34N 30°04' W 093°30'4 4.1
2017-Jan-04 20:33N 30°04' W 093°34'4 3.9
2017-Jan-04 19:33N 30°04' W 093°39'71 2.7
2017-Jan-03 17:21N 29°23' W 094°46'6 3.2
2017-Jan-03 15:30N 29°27' W 094°51'5 5.0
2017-Jan-03 14:34N 29°31' W 094°53'4 4.4
2017-Jan-03 13:33N 29°35' W 094°56'4 4.4
2017-Jan-03 12:33N 29°39' W 094°58'4 3.8
2017-Jan-03 11:34N 29°42' W 095°01'4 3.5
2017-Jan-03 10:25N 29°45' W 095°04'1 1.6
2017-Jan-03 09:29N 29°46' W 095°05'0 0.1
2017-Jan-03 08:33N 29°46' W 095°05'0 0.1
2017-Jan-03 07:20N 29°46' W 095°05'0 0.0
2017-Jan-03 06:30N 29°46' W 095°05'2 2.1
2017-Jan-03 05:34N 29°47' W 095°04'1 0.3
2017-Jan-03 03:17N 29°47' W 095°04'2 2.6
2017-Jan-03 02:33N 29°45' W 095°04'5 4.9
2017-Jan-03 01:33N 29°42' W 094°60'6 5.6
2017-Jan-03 00:33N 29°37' W 094°57'6 5.6
2017-Jan-02 23:33N 29°32' W 094°54'5 5.5
2017-Jan-02 22:33N 29°27' W 094°51'  
Track history (hours):
 
Tides and Currents Weather Stations Pressure Air Temp Water Temp Dewpoint Dewpoint Depression Visibility Wind Speed Wind Dir Waves Ship Positions

Sea Drift

Owner: Marquette Transportation Company Gulf-Inland, LLC, Jefferson, LA. More information available from US FCC via Universal Licensing System and Coast Guard Vessel Documentation Center.

Last reported at 2017-Jan-12 19:33 UTC. Time now 2017-Jan-24 11:17 UTC.
Position N 29°50' W 091°58'.
Warning: this ship's position is 11 days out of date.

Length 23 m; draft 3 m.

Type: Towing. MMSI: 366998080.

Date/timePositionNaut miles runAvg speedWind from/ knotsBaromVisibWave heightAir tempDewpointWater temp
2017-Jan-12 19:33N 29°50' W 091°58'7 7.1
2017-Jan-12 18:33N 29°48' W 092°06'6 6.5
2017-Jan-12 17:33N 29°47' W 092°13'5 4.8
2017-Jan-12 16:33N 29°50' W 092°18'7 6.6
2017-Jan-12 15:33N 29°53' W 092°24'44 6.2
2017-Jan-12 08:33N 30°01' W 093°14'4 3.8
2017-Jan-12 07:33N 30°04' W 093°16'3 2.8
2017-Jan-12 06:33N 30°06' W 093°18'2 2.2
2017-Jan-12 05:33N 30°05' W 093°20'2 1.8
2017-Jan-12 04:33N 30°04' W 093°22'0 0.2
2017-Jan-12 03:33N 30°04' W 093°22'0 0.2
2017-Jan-12 02:33N 30°04' W 093°22'1 0.5
2017-Jan-12 01:33N 30°04' W 093°21'4 3.5
2017-Jan-12 00:33N 30°05' W 093°18'1 1.5
2017-Jan-11 23:33N 30°04' W 093°16'0 0.3
2017-Jan-11 22:33N 30°04' W 093°16'0 0.1
2017-Jan-11 21:33N 30°04' W 093°16'2 2.4
2017-Jan-11 20:33N 30°02' W 093°15'5 4.8
2017-Jan-11 19:33N 29°58' W 093°12'5 4.5
2017-Jan-11 18:33N 29°56' W 093°07'33 3.2
2017-Jan-11 08:27N 29°54' W 092°29'4 4.2
2017-Jan-11 07:33N 29°53' W 092°25'4 3.7
2017-Jan-11 06:33N 29°51' W 092°22'3 2.9
2017-Jan-11 05:33N 29°50' W 092°18'4 4.2
2017-Jan-11 04:33N 29°48' W 092°14'5 4.7
2017-Jan-11 03:33N 29°47' W 092°09'5 5.4
2017-Jan-11 02:33N 29°49' W 092°03'5 5.4
2017-Jan-11 01:33N 29°50' W 091°57'7 4.7
2017-Jan-11 00:03N 29°49' W 091°49'3 3.8
2017-Jan-10 23:14N 29°46' W 091°47'46 3.9
2017-Jan-10 11:29N 29°34' W 090°56'4 4.2
2017-Jan-10 10:28N 29°32' W 090°52'4 4.4
2017-Jan-10 09:33N 29°32' W 090°47'4 3.8
2017-Jan-10 08:33N 29°34' W 090°44'3 3.2
2017-Jan-10 07:33N 29°37' W 090°42'1 0.7
2017-Jan-10 06:33N 29°36' W 090°41'2 2.5
2017-Jan-10 05:33N 29°35' W 090°39'4 3.9
2017-Jan-10 04:33N 29°34' W 090°34'4 4.3
2017-Jan-10 03:33N 29°34' W 090°30'  
2017-Jan-06 04:16N 29°51' W 091°52'3 4.6
2017-Jan-06 03:34N 29°51' W 091°55'4 4.4
2017-Jan-06 02:33N 29°50' W 092°00'4 4.5
2017-Jan-06 01:34N 29°48' W 092°05'4 4.1
2017-Jan-06 00:33N 29°47' W 092°10'3 3.5
2017-Jan-05 23:34N 29°48' W 092°13'4 3.8
2017-Jan-05 22:34N 29°49' W 092°17'4 4.1
2017-Jan-05 21:34N 29°51' W 092°22'3 2.7
2017-Jan-05 20:34N 29°53' W 092°24'4 4.2
2017-Jan-05 19:32N 29°54' W 092°29'25 3.5
2017-Jan-05 12:31N 29°56' W 092°57'3 3.4
2017-Jan-05 11:33N 29°56' W 093°01'3 3.4
2017-Jan-05 10:32N 29°56' W 093°05'3 3.6
2017-Jan-05 09:34N 29°56' W 093°09'3 2.8
2017-Jan-05 08:34N 29°58' W 093°11'3 3.4
2017-Jan-05 07:34N 30°00' W 093°14'3 3.2
2017-Jan-05 06:34N 30°03' W 093°16'3 3.3
2017-Jan-05 05:34N 30°06' W 093°18'2 2.4
2017-Jan-05 04:34N 30°04' W 093°20'2 1.6
2017-Jan-05 03:33N 30°04' W 093°22'0 0.2
2017-Jan-05 02:34N 30°04' W 093°22'1 0.5
2017-Jan-05 01:34N 30°04' W 093°21'1 0.5
2017-Jan-05 00:34N 30°04' W 093°22'0 0.2
2017-Jan-04 23:34N 30°04' W 093°22'2 2.3
2017-Jan-04 22:34N 30°04' W 093°25'4 4.2
2017-Jan-04 21:34N 30°04' W 093°30'4 4.1
2017-Jan-04 20:33N 30°04' W 093°34'4 3.9
2017-Jan-04 19:33N 30°04' W 093°39'71 2.7
2017-Jan-03 17:21N 29°23' W 094°46'6 3.2
2017-Jan-03 15:30N 29°27' W 094°51'5 5.0
2017-Jan-03 14:34N 29°31' W 094°53'4 4.4
2017-Jan-03 13:33N 29°35' W 094°56'4 4.4
2017-Jan-03 12:33N 29°39' W 094°58'4 3.8
2017-Jan-03 11:34N 29°42' W 095°01'4 3.5
2017-Jan-03 10:25N 29°45' W 095°04'1 1.6
2017-Jan-03 09:29N 29°46' W 095°05'0 0.1
2017-Jan-03 08:33N 29°46' W 095°05'0 0.1
2017-Jan-03 07:20N 29°46' W 095°05'0 0.0
2017-Jan-03 06:30N 29°46' W 095°05'2 2.1
2017-Jan-03 05:34N 29°47' W 095°04'1 0.3
2017-Jan-03 03:17N 29°47' W 095°04'2 2.6
2017-Jan-03 02:33N 29°45' W 095°04'5 4.9
2017-Jan-03 01:33N 29°42' W 094°60'6 5.6
2017-Jan-03 00:33N 29°37' W 094°57'6 5.6
2017-Jan-02 23:33N 29°32' W 094°54'5 5.5
2017-Jan-02 22:33N 29°27' W 094°51'  

Dump ship's entire track history